DLH4HX EDDM-EDDV
Flight info
| Callsign | DLH4HX |
|---|---|
| Flight time | 0h 48m |
| Altitude | 32000 |
| Route | INPU2N INPUD Y102 UPALA M726 LASTO M852 BIRKA T803 GITEX GITE1Z |
| Aircraft | A320/M-SDE3FGHIRWY/LB1 |
Departure
| Time | 2026-05-07 09:47 |
|---|---|
| Airport | Munich Airport (EDDM) |
Arrival
| Time | 2026-05-07 10:35 |
|---|---|
| Airport | Hannover Airport (EDDV) |
| Time | Latitude | Longitude | Altitude | Speed | Heading |
|---|---|---|---|---|---|
| 2026-05-07 09:33 | 48.35643 | 11.79273 | 1485 ft | 0 kts | 263° |
| 2026-05-07 09:38 | 48.35644 | 11.79284 | 1471 ft | 4 kts | 263° |
| 2026-05-07 09:38 | 48.35647 | 11.79324 | 1474 ft | 4 kts | 263° |
| 2026-05-07 09:39 | 48.35650 | 11.79357 | 1477 ft | 3 kts | 264° |
| 2026-05-07 09:39 | 48.35648 | 11.79396 | 1476 ft | 4 kts | 299° |
| 2026-05-07 09:39 | 48.35630 | 11.79422 | 1475 ft | 4 kts | 346° |
| 2026-05-07 09:39 | 48.35607 | 11.79427 | 1474 ft | 2 kts | 353° |
| 2026-05-07 09:40 | 48.35606 | 11.79428 | 1474 ft | 0 kts | 353° |
| 2026-05-07 09:41 | 48.35607 | 11.79428 | 1474 ft | 1 kts | 353° |
| 2026-05-07 09:41 | 48.35642 | 11.79421 | 1475 ft | 10 kts | 353° |
| 2026-05-07 09:42 | 48.35733 | 11.79405 | 1475 ft | 14 kts | 353° |
| 2026-05-07 09:42 | 48.35829 | 11.79388 | 1475 ft | 14 kts | 353° |
| 2026-05-07 09:42 | 48.35917 | 11.79358 | 1480 ft | 13 kts | 332° |
| 2026-05-07 09:42 | 48.35998 | 11.79332 | 1486 ft | 12 kts | 355° |
| 2026-05-07 09:43 | 48.36074 | 11.79329 | 1485 ft | 9 kts | 21° |
| 2026-05-07 09:43 | 48.36102 | 11.79424 | 1480 ft | 12 kts | 85° |
| 2026-05-07 09:43 | 48.36113 | 11.79601 | 1485 ft | 23 kts | 83° |
| 2026-05-07 09:43 | 48.36133 | 11.79835 | 1481 ft | 22 kts | 83° |
| 2026-05-07 09:44 | 48.36150 | 11.80053 | 1472 ft | 20 kts | 83° |
| 2026-05-07 09:44 | 48.36165 | 11.80249 | 1476 ft | 18 kts | 83° |
| 2026-05-07 09:44 | 48.36179 | 11.80428 | 1477 ft | 17 kts | 83° |
| 2026-05-07 09:44 | 48.36202 | 11.80575 | 1479 ft | 12 kts | 39° |
| 2026-05-07 09:45 | 48.36263 | 11.80575 | 1484 ft | 9 kts | 351° |
| 2026-05-07 09:45 | 48.36339 | 11.80536 | 1478 ft | 13 kts | 322° |
| 2026-05-07 09:45 | 48.36392 | 11.80394 | 1476 ft | 16 kts | 294° |
| 2026-05-07 09:45 | 48.36435 | 11.80247 | 1480 ft | 15 kts | 292° |
| 2026-05-07 09:46 | 48.36474 | 11.80110 | 1479 ft | 14 kts | 294° |
| 2026-05-07 09:46 | 48.36512 | 11.79979 | 1475 ft | 13 kts | 293° |
| 2026-05-07 09:46 | 48.36512 | 11.79818 | 1485 ft | 26 kts | 264° |
| 2026-05-07 09:46 | 48.36460 | 11.79144 | 1485 ft | 100 kts | 263° |
| 2026-05-07 09:47 | 48.36359 | 11.77815 | 1547 ft | 149 kts | 264° |
| 2026-05-07 09:47 | 48.36239 | 11.76266 | 2297 ft | 149 kts | 264° |
| 2026-05-07 09:47 | 48.36121 | 11.74720 | 3027 ft | 155 kts | 263° |
| 2026-05-07 09:47 | 48.35987 | 11.73039 | 3514 ft | 171 kts | 263° |
| 2026-05-07 09:48 | 48.35850 | 11.71140 | 3855 ft | 194 kts | 264° |
| 2026-05-07 09:48 | 48.35695 | 11.68991 | 4355 ft | 214 kts | 265° |
| 2026-05-07 09:48 | 48.35969 | 11.66794 | 5250 ft | 222 kts | 300° |
| 2026-05-07 09:48 | 48.37188 | 11.65205 | 5858 ft | 251 kts | 332° |
| 2026-05-07 09:49 | 48.38936 | 11.64397 | 6562 ft | 270 kts | 345° |
| 2026-05-07 09:49 | 48.40796 | 11.63937 | 7448 ft | 278 kts | 348° |
| 2026-05-07 09:49 | 48.42726 | 11.63557 | 8394 ft | 282 kts | 349° |
| 2026-05-07 09:49 | 48.44688 | 11.63158 | 9354 ft | 285 kts | 348° |
| 2026-05-07 09:50 | 48.46674 | 11.62706 | 10249 ft | 291 kts | 347° |
| 2026-05-07 09:50 | 48.48765 | 11.62165 | 10637 ft | 316 kts | 346° |
| 2026-05-07 09:50 | 48.50975 | 11.61545 | 10999 ft | 337 kts | 346° |
| 2026-05-07 09:50 | 48.53314 | 11.60865 | 11707 ft | 346 kts | 346° |
| 2026-05-07 09:51 | 48.55709 | 11.60159 | 12514 ft | 352 kts | 346° |
| 2026-05-07 09:51 | 48.58077 | 11.59178 | 13313 ft | 354 kts | 336° |
| 2026-05-07 09:51 | 48.60397 | 11.57831 | 14080 ft | 358 kts | 336° |
| 2026-05-07 09:51 | 48.62746 | 11.56466 | 14797 ft | 363 kts | 336° |
| 2026-05-07 09:52 | 48.65109 | 11.55091 | 15535 ft | 366 kts | 336° |
| 2026-05-07 09:52 | 48.67506 | 11.53697 | 16263 ft | 370 kts | 336° |
| 2026-05-07 09:52 | 48.69896 | 11.52310 | 16960 ft | 374 kts | 336° |
| 2026-05-07 09:52 | 48.72339 | 11.50895 | 17689 ft | 377 kts | 336° |
| 2026-05-07 09:53 | 48.74824 | 11.49459 | 18409 ft | 381 kts | 336° |
| 2026-05-07 09:53 | 48.77316 | 11.48017 | 19024 ft | 385 kts | 336° |
| 2026-05-07 09:53 | 48.79832 | 11.46560 | 19647 ft | 387 kts | 336° |
| 2026-05-07 09:53 | 48.82357 | 11.45093 | 20273 ft | 390 kts | 336° |
| 2026-05-07 09:54 | 48.84871 | 11.43628 | 20923 ft | 392 kts | 336° |
| 2026-05-07 09:54 | 48.87436 | 11.42131 | 21552 ft | 395 kts | 336° |
| 2026-05-07 09:54 | 48.90019 | 11.40625 | 22145 ft | 398 kts | 336° |
| 2026-05-07 09:54 | 48.92616 | 11.39115 | 22727 ft | 401 kts | 337° |
| 2026-05-07 09:55 | 48.95240 | 11.37585 | 23314 ft | 403 kts | 337° |
| 2026-05-07 09:55 | 48.97868 | 11.36046 | 23843 ft | 405 kts | 337° |
| 2026-05-07 09:55 | 49.00490 | 11.34509 | 24317 ft | 408 kts | 337° |
| 2026-05-07 09:55 | 49.03152 | 11.32948 | 24755 ft | 411 kts | 337° |
| 2026-05-07 09:56 | 49.05839 | 11.31368 | 25176 ft | 414 kts | 336° |
| 2026-05-07 09:56 | 49.08547 | 11.29773 | 25590 ft | 418 kts | 336° |
| 2026-05-07 09:56 | 49.11272 | 11.28167 | 26006 ft | 421 kts | 337° |
| 2026-05-07 09:56 | 49.13985 | 11.26568 | 26413 ft | 425 kts | 337° |
| 2026-05-07 09:57 | 49.16755 | 11.24935 | 26817 ft | 427 kts | 337° |
| 2026-05-07 09:57 | 49.19569 | 11.23376 | 27219 ft | 431 kts | 342° |
| 2026-05-07 09:57 | 49.22523 | 11.22417 | 27617 ft | 437 kts | 351° |
| 2026-05-07 09:57 | 49.25582 | 11.22178 | 28015 ft | 442 kts | 359° |
| 2026-05-07 09:58 | 49.28676 | 11.22221 | 28404 ft | 445 kts | 359° |
| 2026-05-07 09:58 | 49.31787 | 11.22255 | 28786 ft | 448 kts | 359° |
| 2026-05-07 09:58 | 49.34915 | 11.22283 | 29157 ft | 451 kts | 359° |
| 2026-05-07 09:58 | 49.38029 | 11.22305 | 29520 ft | 454 kts | 359° |
| 2026-05-07 09:59 | 49.41197 | 11.22324 | 29870 ft | 456 kts | 359° |
| 2026-05-07 09:59 | 49.44386 | 11.22342 | 30179 ft | 459 kts | 359° |
| 2026-05-07 09:59 | 49.47594 | 11.22364 | 30444 ft | 462 kts | 359° |
| 2026-05-07 09:59 | 49.50837 | 11.22388 | 30708 ft | 465 kts | 359° |
| 2026-05-07 10:00 | 49.54085 | 11.22412 | 30996 ft | 467 kts | 359° |
| 2026-05-07 10:00 | 49.57344 | 11.22438 | 31373 ft | 467 kts | 359° |
| 2026-05-07 10:00 | 49.60567 | 11.22456 | 31738 ft | 467 kts | 359° |
| 2026-05-07 10:00 | 49.63829 | 11.22465 | 31956 ft | 468 kts | 359° |
| 2026-05-07 10:01 | 49.65985 | 11.22468 | 31989 ft | 462 kts | 359° |
| 2026-05-07 10:01 | 49.73414 | 11.22474 | 31983 ft | 456 kts | 359° |
| 2026-05-07 10:02 | 49.78739 | 11.22479 | 31979 ft | 456 kts | 359° |
| 2026-05-07 10:02 | 49.85089 | 11.22513 | 31983 ft | 456 kts | 359° |
| 2026-05-07 10:03 | 49.91444 | 11.22548 | 31968 ft | 456 kts | 359° |
| 2026-05-07 10:03 | 49.97750 | 11.22592 | 31965 ft | 456 kts | 359° |
| 2026-05-07 10:04 | 50.04103 | 11.22634 | 31961 ft | 455 kts | 359° |
| 2026-05-07 10:04 | 50.10461 | 11.22670 | 31957 ft | 456 kts | 359° |
| 2026-05-07 10:05 | 50.16777 | 11.22708 | 31951 ft | 455 kts | 360° |
| 2026-05-07 10:05 | 50.23134 | 11.22733 | 31960 ft | 455 kts | 359° |
| 2026-05-07 10:06 | 50.29480 | 11.22764 | 31954 ft | 455 kts | 360° |
| 2026-05-07 10:06 | 50.35788 | 11.22782 | 31947 ft | 455 kts | 357° |
| 2026-05-07 10:07 | 50.42102 | 11.21886 | 31943 ft | 454 kts | 354° |
| 2026-05-07 10:07 | 50.48407 | 11.20934 | 31942 ft | 454 kts | 354° |
| 2026-05-07 10:08 | 50.54686 | 11.19999 | 31945 ft | 454 kts | 354° |
| 2026-05-07 10:08 | 50.60995 | 11.19050 | 31941 ft | 454 kts | 354° |
| 2026-05-07 10:09 | 50.67292 | 11.18095 | 31947 ft | 454 kts | 354° |
| 2026-05-07 10:09 | 50.73601 | 11.17137 | 31967 ft | 454 kts | 354° |
| 2026-05-07 10:10 | 50.79860 | 11.16181 | 31974 ft | 454 kts | 354° |
| 2026-05-07 10:10 | 50.86160 | 11.15223 | 31982 ft | 453 kts | 354° |
| 2026-05-07 10:11 | 50.92326 | 11.13327 | 31995 ft | 451 kts | 335° |
| 2026-05-07 10:11 | 50.94997 | 11.10743 | 31997 ft | 450 kts | 320° |
| 2026-05-07 10:11 | 50.97343 | 11.07541 | 31991 ft | 450 kts | 318° |
| 2026-05-07 10:11 | 50.99723 | 11.04248 | 31802 ft | 455 kts | 318° |
| 2026-05-07 10:12 | 51.02122 | 11.00921 | 31286 ft | 459 kts | 318° |
| 2026-05-07 10:12 | 51.04543 | 10.97567 | 30728 ft | 462 kts | 319° |
| 2026-05-07 10:12 | 51.06979 | 10.94198 | 30185 ft | 464 kts | 319° |
| 2026-05-07 10:12 | 51.09422 | 10.90818 | 29564 ft | 466 kts | 319° |
| 2026-05-07 10:13 | 51.11873 | 10.87418 | 28934 ft | 468 kts | 319° |
| 2026-05-07 10:13 | 51.14328 | 10.84002 | 28320 ft | 468 kts | 319° |
| 2026-05-07 10:13 | 51.16754 | 10.80619 | 27710 ft | 467 kts | 319° |
| 2026-05-07 10:13 | 51.19196 | 10.77211 | 27120 ft | 463 kts | 319° |
| 2026-05-07 10:14 | 51.21609 | 10.73840 | 26542 ft | 459 kts | 319° |
| 2026-05-07 10:14 | 51.24003 | 10.70489 | 25973 ft | 454 kts | 319° |
| 2026-05-07 10:14 | 51.26363 | 10.67179 | 25414 ft | 450 kts | 319° |
| 2026-05-07 10:14 | 51.28707 | 10.63887 | 24870 ft | 447 kts | 318° |
| 2026-05-07 10:15 | 51.31034 | 10.60615 | 24330 ft | 442 kts | 318° |
| 2026-05-07 10:15 | 51.33334 | 10.57379 | 23808 ft | 438 kts | 318° |
| 2026-05-07 10:15 | 51.35612 | 10.54174 | 23242 ft | 434 kts | 318° |
| 2026-05-07 10:15 | 51.37841 | 10.51033 | 22641 ft | 429 kts | 317° |
| 2026-05-07 10:16 | 51.40070 | 10.47880 | 22046 ft | 426 kts | 317° |
| 2026-05-07 10:16 | 51.42286 | 10.44745 | 21463 ft | 422 kts | 317° |
| 2026-05-07 10:16 | 51.44477 | 10.41642 | 20888 ft | 418 kts | 317° |
| 2026-05-07 10:16 | 51.46652 | 10.38559 | 20348 ft | 414 kts | 317° |
| 2026-05-07 10:17 | 51.48802 | 10.35510 | 19943 ft | 409 kts | 317° |
| 2026-05-07 10:17 | 51.50926 | 10.32492 | 19551 ft | 406 kts | 317° |
| 2026-05-07 10:17 | 51.53040 | 10.29482 | 19156 ft | 404 kts | 317° |
| 2026-05-07 10:17 | 51.55136 | 10.26489 | 18768 ft | 402 kts | 317° |
| 2026-05-07 10:18 | 51.57194 | 10.23542 | 18398 ft | 399 kts | 317° |
| 2026-05-07 10:18 | 51.59263 | 10.20576 | 17979 ft | 397 kts | 317° |
| 2026-05-07 10:18 | 51.61324 | 10.17619 | 17554 ft | 395 kts | 317° |
| 2026-05-07 10:18 | 51.63366 | 10.14687 | 17126 ft | 392 kts | 317° |
| 2026-05-07 10:19 | 51.65398 | 10.11769 | 16744 ft | 389 kts | 317° |
| 2026-05-07 10:19 | 51.67414 | 10.08872 | 16374 ft | 387 kts | 317° |
| 2026-05-07 10:19 | 51.69422 | 10.05984 | 16009 ft | 385 kts | 317° |
| 2026-05-07 10:19 | 51.71413 | 10.03115 | 15669 ft | 382 kts | 316° |
| 2026-05-07 10:20 | 51.73370 | 10.00292 | 15317 ft | 380 kts | 316° |
| 2026-05-07 10:20 | 51.75341 | 9.97445 | 14969 ft | 378 kts | 316° |
| 2026-05-07 10:20 | 51.77296 | 9.94617 | 14634 ft | 376 kts | 316° |
| 2026-05-07 10:20 | 51.79237 | 9.91801 | 14295 ft | 374 kts | 316° |
| 2026-05-07 10:21 | 51.81170 | 9.88992 | 13959 ft | 372 kts | 316° |
| 2026-05-07 10:21 | 51.83093 | 9.86198 | 13609 ft | 370 kts | 316° |
| 2026-05-07 10:21 | 51.84980 | 9.83457 | 13234 ft | 368 kts | 317° |
| 2026-05-07 10:21 | 51.86879 | 9.80701 | 12859 ft | 365 kts | 317° |
| 2026-05-07 10:22 | 51.88773 | 9.77955 | 12508 ft | 363 kts | 317° |
| 2026-05-07 10:22 | 51.90659 | 9.75213 | 12134 ft | 362 kts | 317° |
| 2026-05-07 10:22 | 51.92524 | 9.72490 | 11771 ft | 360 kts | 317° |
| 2026-05-07 10:22 | 51.94379 | 9.69778 | 11430 ft | 358 kts | 317° |
| 2026-05-07 10:23 | 51.96224 | 9.67076 | 11079 ft | 356 kts | 317° |
| 2026-05-07 10:23 | 51.98061 | 9.64385 | 10767 ft | 355 kts | 317° |
| 2026-05-07 10:23 | 51.99893 | 9.61700 | 10440 ft | 353 kts | 317° |
| 2026-05-07 10:23 | 52.01714 | 9.59027 | 10123 ft | 352 kts | 317° |
| 2026-05-07 10:24 | 52.03526 | 9.56361 | 9806 ft | 351 kts | 317° |
| 2026-05-07 10:24 | 52.05307 | 9.53738 | 9460 ft | 349 kts | 317° |
| 2026-05-07 10:24 | 52.07107 | 9.51092 | 9114 ft | 348 kts | 317° |
| 2026-05-07 10:24 | 52.08903 | 9.48453 | 8781 ft | 346 kts | 317° |
| 2026-05-07 10:25 | 52.10686 | 9.45821 | 8445 ft | 344 kts | 317° |
| 2026-05-07 10:25 | 52.12456 | 9.43198 | 8100 ft | 344 kts | 317° |
| 2026-05-07 10:25 | 52.14219 | 9.40582 | 7774 ft | 342 kts | 318° |
| 2026-05-07 10:25 | 52.15970 | 9.37977 | 7447 ft | 339 kts | 318° |
| 2026-05-07 10:26 | 52.17684 | 9.35435 | 7157 ft | 326 kts | 318° |
| 2026-05-07 10:26 | 52.19315 | 9.33017 | 6882 ft | 315 kts | 319° |
| 2026-05-07 10:26 | 52.20916 | 9.30638 | 6615 ft | 309 kts | 319° |
| 2026-05-07 10:26 | 52.22500 | 9.28281 | 6359 ft | 308 kts | 319° |
| 2026-05-07 10:27 | 52.24094 | 9.25944 | 6104 ft | 306 kts | 323° |
| 2026-05-07 10:27 | 52.25977 | 9.24494 | 5841 ft | 298 kts | 353° |
| 2026-05-07 10:27 | 52.27990 | 9.24665 | 5587 ft | 284 kts | 14° |
| 2026-05-07 10:27 | 52.29837 | 9.25623 | 5331 ft | 273 kts | 23° |
| 2026-05-07 10:28 | 52.31566 | 9.26779 | 5089 ft | 264 kts | 24° |
| 2026-05-07 10:28 | 52.33259 | 9.27906 | 4830 ft | 260 kts | 23° |
| 2026-05-07 10:28 | 52.34942 | 9.28941 | 4575 ft | 256 kts | 21° |
| 2026-05-07 10:28 | 52.36579 | 9.29862 | 4366 ft | 246 kts | 20° |
| 2026-05-07 10:29 | 52.38189 | 9.30706 | 4157 ft | 237 kts | 19° |
| 2026-05-07 10:29 | 52.39736 | 9.31480 | 3946 ft | 228 kts | 19° |
| 2026-05-07 10:29 | 52.41235 | 9.32208 | 3804 ft | 219 kts | 19° |
| 2026-05-07 10:30 | 52.44038 | 9.33701 | 3584 ft | 205 kts | 31° |
| 2026-05-07 10:30 | 52.45129 | 9.35080 | 3434 ft | 199 kts | 49° |
| 2026-05-07 10:30 | 52.45880 | 9.36958 | 3319 ft | 192 kts | 67° |
| 2026-05-07 10:30 | 52.46212 | 9.39025 | 3190 ft | 185 kts | 84° |
| 2026-05-07 10:31 | 52.46191 | 9.41091 | 3118 ft | 178 kts | 91° |
| 2026-05-07 10:31 | 52.46142 | 9.43113 | 3039 ft | 177 kts | 91° |
| 2026-05-07 10:31 | 52.46092 | 9.45075 | 2977 ft | 168 kts | 91° |
| 2026-05-07 10:31 | 52.46044 | 9.46971 | 2827 ft | 166 kts | 91° |
| 2026-05-07 10:32 | 52.45998 | 9.48846 | 2626 ft | 163 kts | 91° |
| 2026-05-07 10:32 | 52.45950 | 9.50683 | 2411 ft | 163 kts | 91° |
| 2026-05-07 10:32 | 52.45903 | 9.52498 | 2195 ft | 154 kts | 91° |
| 2026-05-07 10:32 | 52.45858 | 9.54199 | 1988 ft | 146 kts | 90° |
| 2026-05-07 10:33 | 52.45815 | 9.55827 | 1808 ft | 139 kts | 90° |
| 2026-05-07 10:33 | 52.45775 | 9.57341 | 1623 ft | 131 kts | 91° |
| 2026-05-07 10:33 | 52.45736 | 9.58820 | 1435 ft | 128 kts | 90° |
| 2026-05-07 10:33 | 52.45711 | 9.59785 | 1303 ft | 127 kts | 90° |
| 2026-05-07 10:34 | 52.45672 | 9.61230 | 1078 ft | 127 kts | 89° |
| 2026-05-07 10:34 | 52.45638 | 9.62674 | 828 ft | 127 kts | 89° |
| 2026-05-07 10:34 | 52.45595 | 9.64123 | 654 ft | 127 kts | 91° |
| 2026-05-07 10:34 | 52.45559 | 9.65552 | 497 ft | 125 kts | 91° |
| 2026-05-07 10:35 | 52.45514 | 9.66987 | 325 ft | 125 kts | 90° |
| 2026-05-07 10:35 | 52.45475 | 9.68385 | 196 ft | 115 kts | 89° |
| 2026-05-07 10:35 | 52.45451 | 9.69503 | 194 ft | 75 kts | 93° |
| 2026-05-07 10:35 | 52.45433 | 9.70122 | 188 ft | 44 kts | 95° |
| 2026-05-07 10:36 | 52.45417 | 9.70520 | 196 ft | 21 kts | 92° |
| 2026-05-07 10:36 | 52.45442 | 9.70652 | 197 ft | 13 kts | 26° |
| 2026-05-07 10:36 | 52.45510 | 9.70670 | 194 ft | 10 kts | 1° |
| 2026-05-07 10:36 | 52.45591 | 9.70667 | 199 ft | 13 kts | 359° |
| 2026-05-07 10:37 | 52.45652 | 9.70566 | 191 ft | 14 kts | 278° |
| 2026-05-07 10:37 | 52.45656 | 9.70412 | 191 ft | 13 kts | 272° |
| 2026-05-07 10:37 | 52.45659 | 9.70271 | 191 ft | 12 kts | 272° |
| 2026-05-07 10:37 | 52.45664 | 9.70115 | 191 ft | 17 kts | 272° |
| 2026-05-07 10:38 | 52.45669 | 9.69923 | 201 ft | 16 kts | 273° |
| 2026-05-07 10:38 | 52.45675 | 9.69744 | 191 ft | 15 kts | 272° |
| 2026-05-07 10:38 | 52.45679 | 9.69580 | 191 ft | 10 kts | 272° |
| 2026-05-07 10:38 | 52.45711 | 9.69490 | 203 ft | 9 kts | 327° |
| 2026-05-07 10:39 | 52.45768 | 9.69421 | 204 ft | 11 kts | 349° |
| 2026-05-07 10:39 | 52.45826 | 9.69454 | 204 ft | 7 kts | 22° |
| 2026-05-07 10:39 | 52.45844 | 9.69466 | 197 ft | 0 kts | 22° |